DLH077 EDDL-EDDF
Flight info
| Callsign | DLH077 |
|---|---|
| Flight time | 0h 30m |
| Altitude | 23000 |
| Route | COL6T/23L COL T911 ROLIS ROLIS5A |
| Aircraft | A320/M-SDE3FGHIRWY/LB1 |
Departure
| Time | 2026-05-04 18:30 |
|---|---|
| Airport | Düsseldorf Airport (EDDL) |
Arrival
| Time | 2026-05-04 19:00 |
|---|---|
| Airport | Frankfurt Main Airport (EDDF) |
| Time | Latitude | Longitude | Altitude | Speed | Heading |
|---|---|---|---|---|---|
| 2026-05-04 17:59 | 51.28068 | 6.76290 | 125 ft | 0 kts | 185° |
| 2026-05-04 18:17 | 51.28088 | 6.76290 | 127 ft | 2 kts | 158° |
| 2026-05-04 18:18 | 51.28101 | 6.76280 | 125 ft | 2 kts | 142° |
| 2026-05-04 18:18 | 51.28111 | 6.76264 | 125 ft | 2 kts | 121° |
| 2026-05-04 18:18 | 51.28118 | 6.76244 | 127 ft | 2 kts | 110° |
| 2026-05-04 18:18 | 51.28121 | 6.76221 | 125 ft | 2 kts | 86° |
| 2026-05-04 18:19 | 51.28113 | 6.76178 | 123 ft | 2 kts | 53° |
| 2026-05-04 18:19 | 51.28117 | 6.76185 | 124 ft | 1 kts | 49° |
| 2026-05-04 18:19 | 51.28118 | 6.76186 | 124 ft | 0 kts | 50° |
| 2026-05-04 18:24 | 51.28135 | 6.76219 | 124 ft | 12 kts | 50° |
| 2026-05-04 18:24 | 51.28207 | 6.76236 | 125 ft | 12 kts | 345° |
| 2026-05-04 18:24 | 51.28265 | 6.76304 | 124 ft | 11 kts | 53° |
| 2026-05-04 18:24 | 51.28323 | 6.76427 | 121 ft | 16 kts | 53° |
| 2026-05-04 18:25 | 51.28393 | 6.76573 | 125 ft | 17 kts | 53° |
| 2026-05-04 18:25 | 51.28466 | 6.76725 | 125 ft | 17 kts | 52° |
| 2026-05-04 18:25 | 51.28534 | 6.76870 | 128 ft | 16 kts | 53° |
| 2026-05-04 18:25 | 51.28605 | 6.77019 | 132 ft | 17 kts | 52° |
| 2026-05-04 18:26 | 51.28679 | 6.77174 | 132 ft | 19 kts | 52° |
| 2026-05-04 18:26 | 51.28763 | 6.77350 | 131 ft | 21 kts | 53° |
| 2026-05-04 18:26 | 51.28857 | 6.77545 | 126 ft | 23 kts | 52° |
| 2026-05-04 18:26 | 51.28954 | 6.77750 | 131 ft | 24 kts | 53° |
| 2026-05-04 18:27 | 51.29053 | 6.77958 | 134 ft | 24 kts | 52° |
| 2026-05-04 18:27 | 51.29155 | 6.78172 | 135 ft | 23 kts | 51° |
| 2026-05-04 18:27 | 51.29258 | 6.78389 | 133 ft | 26 kts | 53° |
| 2026-05-04 18:27 | 51.29362 | 6.78566 | 133 ft | 16 kts | 20° |
| 2026-05-04 18:28 | 51.29463 | 6.78565 | 134 ft | 13 kts | 355° |
| 2026-05-04 18:28 | 51.29514 | 6.78489 | 134 ft | 10 kts | 274° |
| 2026-05-04 18:28 | 51.29488 | 6.78402 | 132 ft | 0 kts | 233° |
| 2026-05-04 18:29 | 51.29486 | 6.78398 | 132 ft | 4 kts | 233° |
| 2026-05-04 18:29 | 51.29360 | 6.78135 | 132 ft | 67 kts | 232° |
| 2026-05-04 18:29 | 51.28944 | 6.77262 | 124 ft | 129 kts | 232° |
| 2026-05-04 18:30 | 51.27622 | 6.74461 | 828 ft | 170 kts | 231° |
| 2026-05-04 18:30 | 51.26935 | 6.72886 | 1499 ft | 175 kts | 233° |
| 2026-05-04 18:30 | 51.26258 | 6.71255 | 2199 ft | 178 kts | 234° |
| 2026-05-04 18:31 | 51.25559 | 6.69609 | 2895 ft | 182 kts | 233° |
| 2026-05-04 18:31 | 51.24804 | 6.67935 | 3482 ft | 191 kts | 232° |
| 2026-05-04 18:31 | 51.23955 | 6.66189 | 3842 ft | 208 kts | 229° |
| 2026-05-04 18:31 | 51.22890 | 6.64519 | 4265 ft | 222 kts | 216° |
| 2026-05-04 18:32 | 51.21484 | 6.63344 | 4805 ft | 237 kts | 192° |
| 2026-05-04 18:32 | 51.19760 | 6.63319 | 5283 ft | 258 kts | 174° |
| 2026-05-04 18:32 | 51.17956 | 6.63673 | 6094 ft | 264 kts | 173° |
| 2026-05-04 18:32 | 51.16154 | 6.64146 | 6929 ft | 268 kts | 164° |
| 2026-05-04 18:33 | 51.14515 | 6.65593 | 7714 ft | 276 kts | 140° |
| 2026-05-04 18:33 | 51.13410 | 6.68106 | 8644 ft | 283 kts | 115° |
| 2026-05-04 18:33 | 51.13102 | 6.71234 | 9512 ft | 295 kts | 89° |
| 2026-05-04 18:33 | 51.13302 | 6.74523 | 9869 ft | 298 kts | 89° |
| 2026-05-04 18:34 | 51.13450 | 6.77836 | 9960 ft | 308 kts | 90° |
| 2026-05-04 18:34 | 51.13565 | 6.81382 | 9975 ft | 321 kts | 90° |
| 2026-05-04 18:34 | 51.13673 | 6.85016 | 10023 ft | 334 kts | 90° |
| 2026-05-04 18:34 | 51.13791 | 6.88816 | 10322 ft | 354 kts | 89° |
| 2026-05-04 18:35 | 51.13920 | 6.92752 | 10799 ft | 365 kts | 89° |
| 2026-05-04 18:35 | 51.14059 | 6.96819 | 11477 ft | 370 kts | 89° |
| 2026-05-04 18:35 | 51.14205 | 7.00932 | 12190 ft | 374 kts | 89° |
| 2026-05-04 18:35 | 51.14357 | 7.05089 | 12906 ft | 378 kts | 89° |
| 2026-05-04 18:36 | 51.14384 | 7.09288 | 13593 ft | 380 kts | 97° |
| 2026-05-04 18:36 | 51.13954 | 7.13440 | 14208 ft | 381 kts | 106° |
| 2026-05-04 18:36 | 51.13309 | 7.17572 | 14778 ft | 386 kts | 107° |
| 2026-05-04 18:36 | 51.12486 | 7.21642 | 15347 ft | 387 kts | 116° |
| 2026-05-04 18:37 | 51.11183 | 7.25386 | 15935 ft | 387 kts | 127° |
| 2026-05-04 18:37 | 51.09444 | 7.28653 | 16482 ft | 388 kts | 139° |
| 2026-05-04 18:37 | 51.07327 | 7.31309 | 17035 ft | 389 kts | 149° |
| 2026-05-04 18:37 | 51.05041 | 7.33537 | 17577 ft | 392 kts | 150° |
| 2026-05-04 18:38 | 51.02706 | 7.35800 | 18121 ft | 395 kts | 150° |
| 2026-05-04 18:38 | 51.00353 | 7.38093 | 18617 ft | 399 kts | 150° |
| 2026-05-04 18:38 | 50.97982 | 7.40411 | 18916 ft | 401 kts | 150° |
| 2026-05-04 18:38 | 50.95604 | 7.42735 | 18987 ft | 401 kts | 150° |
| 2026-05-04 18:39 | 50.93226 | 7.45049 | 18995 ft | 401 kts | 150° |
| 2026-05-04 18:39 | 50.90841 | 7.47355 | 19008 ft | 401 kts | 150° |
| 2026-05-04 18:39 | 50.88463 | 7.49647 | 19003 ft | 401 kts | 150° |
| 2026-05-04 18:39 | 50.86079 | 7.51943 | 19004 ft | 401 kts | 150° |
| 2026-05-04 18:40 | 50.83700 | 7.54237 | 18994 ft | 401 kts | 151° |
| 2026-05-04 18:40 | 50.81317 | 7.56532 | 18997 ft | 401 kts | 151° |
| 2026-05-04 18:40 | 50.78966 | 7.58789 | 18999 ft | 400 kts | 152° |
| 2026-05-04 18:40 | 50.76467 | 7.60679 | 19000 ft | 398 kts | 159° |
| 2026-05-04 18:41 | 50.73917 | 7.62393 | 19001 ft | 398 kts | 159° |
| 2026-05-04 18:41 | 50.71367 | 7.64094 | 18999 ft | 398 kts | 159° |
| 2026-05-04 18:41 | 50.68815 | 7.65792 | 18998 ft | 398 kts | 159° |
| 2026-05-04 18:41 | 50.66264 | 7.67487 | 19001 ft | 398 kts | 159° |
| 2026-05-04 18:42 | 50.63711 | 7.69175 | 19001 ft | 398 kts | 160° |
| 2026-05-04 18:42 | 50.62016 | 7.70294 | 18990 ft | 398 kts | 160° |
| 2026-05-04 18:42 | 50.59462 | 7.71983 | 18995 ft | 399 kts | 160° |
| 2026-05-04 18:42 | 50.56905 | 7.73676 | 18998 ft | 399 kts | 160° |
| 2026-05-04 18:43 | 50.54346 | 7.75368 | 18998 ft | 399 kts | 160° |
| 2026-05-04 18:43 | 50.51798 | 7.77052 | 18996 ft | 391 kts | 160° |
| 2026-05-04 18:43 | 50.49339 | 7.78680 | 18871 ft | 376 kts | 160° |
| 2026-05-04 18:43 | 50.46354 | 7.80654 | 18713 ft | 346 kts | 160° |
| 2026-05-04 18:44 | 50.44885 | 7.81628 | 18559 ft | 333 kts | 159° |
| 2026-05-04 18:44 | 50.43531 | 7.82703 | 18242 ft | 328 kts | 152° |
| 2026-05-04 18:44 | 50.41082 | 7.85509 | 17343 ft | 324 kts | 145° |
| 2026-05-04 18:44 | 50.39326 | 7.87694 | 16663 ft | 320 kts | 145° |
| 2026-05-04 18:45 | 50.37594 | 7.89846 | 16002 ft | 317 kts | 145° |
| 2026-05-04 18:45 | 50.35894 | 7.91955 | 15380 ft | 315 kts | 145° |
| 2026-05-04 18:45 | 50.34187 | 7.94073 | 14783 ft | 312 kts | 144° |
| 2026-05-04 18:45 | 50.32676 | 7.96651 | 14499 ft | 339 kts | 125° |
| 2026-05-04 18:46 | 50.31839 | 8.00206 | 14108 ft | 355 kts | 99° |
| 2026-05-04 18:46 | 50.31926 | 8.04070 | 13648 ft | 356 kts | 86° |
| 2026-05-04 18:46 | 50.32028 | 8.07919 | 13062 ft | 351 kts | 95° |
| 2026-05-04 18:46 | 50.31697 | 8.11657 | 12486 ft | 344 kts | 107° |
| 2026-05-04 18:47 | 50.31236 | 8.15322 | 11917 ft | 343 kts | 100° |
| 2026-05-04 18:47 | 50.30932 | 8.19001 | 11362 ft | 340 kts | 101° |
| 2026-05-04 18:47 | 50.30617 | 8.22597 | 10824 ft | 337 kts | 101° |
| 2026-05-04 18:47 | 50.30297 | 8.26201 | 10286 ft | 333 kts | 101° |
| 2026-05-04 18:48 | 50.29981 | 8.29789 | 10015 ft | 332 kts | 101° |
| 2026-05-04 18:48 | 50.29668 | 8.33356 | 9957 ft | 331 kts | 101° |
| 2026-05-04 18:48 | 50.29357 | 8.36920 | 9973 ft | 331 kts | 101° |
| 2026-05-04 18:48 | 50.29049 | 8.40464 | 9608 ft | 327 kts | 101° |
| 2026-05-04 18:49 | 50.28742 | 8.43987 | 9154 ft | 325 kts | 101° |
| 2026-05-04 18:49 | 50.28432 | 8.47472 | 8724 ft | 323 kts | 101° |
| 2026-05-04 18:49 | 50.28122 | 8.50922 | 8263 ft | 320 kts | 101° |
| 2026-05-04 18:49 | 50.27813 | 8.54353 | 7805 ft | 317 kts | 101° |
| 2026-05-04 18:50 | 50.27512 | 8.57710 | 7397 ft | 314 kts | 100° |
| 2026-05-04 18:50 | 50.27305 | 8.59993 | 7090 ft | 313 kts | 101° |
| 2026-05-04 18:50 | 50.27184 | 8.61320 | 6919 ft | 312 kts | 101° |
| 2026-05-04 18:50 | 50.26986 | 8.63479 | 6641 ft | 311 kts | 101° |
| 2026-05-04 18:51 | 50.26681 | 8.66816 | 6202 ft | 308 kts | 100° |
| 2026-05-04 18:51 | 50.26397 | 8.69931 | 5762 ft | 306 kts | 100° |
| 2026-05-04 18:51 | 50.26099 | 8.73183 | 5321 ft | 304 kts | 99° |
| 2026-05-04 18:51 | 50.25784 | 8.76431 | 5121 ft | 292 kts | 101° |
| 2026-05-04 18:52 | 50.25321 | 8.79380 | 4999 ft | 276 kts | 116° |
| 2026-05-04 18:52 | 50.24248 | 8.81768 | 5007 ft | 267 kts | 132° |
| 2026-05-04 18:52 | 50.23009 | 8.83927 | 5008 ft | 266 kts | 134° |
| 2026-05-04 18:52 | 50.21792 | 8.85998 | 5004 ft | 250 kts | 134° |
| 2026-05-04 18:53 | 50.20654 | 8.87931 | 5008 ft | 237 kts | 134° |
| 2026-05-04 18:53 | 50.19544 | 8.89817 | 5009 ft | 235 kts | 134° |
| 2026-05-04 18:53 | 50.18411 | 8.91656 | 5008 ft | 234 kts | 143° |
| 2026-05-04 18:53 | 50.16948 | 8.92651 | 5010 ft | 231 kts | 175° |
| 2026-05-04 18:54 | 50.15384 | 8.92264 | 5011 ft | 230 kts | 204° |
| 2026-05-04 18:54 | 50.14037 | 8.90919 | 5009 ft | 231 kts | 223° |
| 2026-05-04 18:54 | 50.13050 | 8.88942 | 5008 ft | 233 kts | 242° |
| 2026-05-04 18:54 | 50.12450 | 8.86603 | 4968 ft | 232 kts | 249° |
| 2026-05-04 18:55 | 50.11904 | 8.84265 | 4739 ft | 228 kts | 249° |
| 2026-05-04 18:55 | 50.10840 | 8.79741 | 4113 ft | 217 kts | 249° |
| 2026-05-04 18:55 | 50.10337 | 8.77608 | 3815 ft | 202 kts | 249° |
| 2026-05-04 18:56 | 50.09867 | 8.75620 | 3539 ft | 190 kts | 250° |
| 2026-05-04 18:56 | 50.09420 | 8.73729 | 3275 ft | 183 kts | 250° |
| 2026-05-04 18:56 | 50.08984 | 8.71890 | 3020 ft | 179 kts | 250° |
| 2026-05-04 18:56 | 50.08559 | 8.70095 | 2790 ft | 172 kts | 250° |
| 2026-05-04 18:57 | 50.08160 | 8.68416 | 2551 ft | 158 kts | 251° |
| 2026-05-04 18:57 | 50.07793 | 8.66867 | 2321 ft | 149 kts | 251° |
| 2026-05-04 18:57 | 50.07438 | 8.65374 | 2105 ft | 146 kts | 251° |
| 2026-05-04 18:57 | 50.07093 | 8.63919 | 1899 ft | 145 kts | 252° |
| 2026-05-04 18:58 | 50.06750 | 8.62476 | 1700 ft | 144 kts | 252° |
| 2026-05-04 18:58 | 50.06407 | 8.61015 | 1508 ft | 143 kts | 253° |
| 2026-05-04 18:58 | 50.06085 | 8.59574 | 1259 ft | 143 kts | 253° |
| 2026-05-04 18:58 | 50.05723 | 8.58139 | 1071 ft | 142 kts | 250° |
| 2026-05-04 18:59 | 50.05379 | 8.56706 | 886 ft | 141 kts | 252° |
| 2026-05-04 18:59 | 50.05042 | 8.55267 | 657 ft | 140 kts | 252° |
| 2026-05-04 18:59 | 50.04704 | 8.53872 | 455 ft | 135 kts | 251° |
| 2026-05-04 18:59 | 50.04381 | 8.52547 | 354 ft | 126 kts | 252° |
| 2026-05-04 19:00 | 50.04124 | 8.51452 | 329 ft | 81 kts | 249° |
| 2026-05-04 19:00 | 50.04000 | 8.51056 | 325 ft | 27 kts | 233° |
| 2026-05-04 19:00 | 50.03874 | 8.50875 | 323 ft | 19 kts | 218° |
| 2026-05-04 19:00 | 50.03808 | 8.50839 | 327 ft | 0 kts | 164° |
| 2026-05-04 19:01 | 50.03790 | 8.50861 | 325 ft | 9 kts | 131° |
| 2026-05-04 19:01 | 50.03790 | 8.50963 | 328 ft | 9 kts | 70° |
| 2026-05-04 19:02 | 50.03819 | 8.51085 | 329 ft | 15 kts | 70° |
| 2026-05-04 19:02 | 50.03855 | 8.51232 | 328 ft | 13 kts | 70° |
| 2026-05-04 19:02 | 50.03885 | 8.51359 | 330 ft | 16 kts | 70° |
| 2026-05-04 19:02 | 50.03936 | 8.51571 | 334 ft | 22 kts | 70° |
| 2026-05-04 19:03 | 50.03990 | 8.51798 | 336 ft | 23 kts | 69° |
| 2026-05-04 19:03 | 50.04048 | 8.52040 | 338 ft | 27 kts | 70° |
| 2026-05-04 19:03 | 50.04119 | 8.52335 | 347 ft | 30 kts | 69° |
| 2026-05-04 19:03 | 50.04192 | 8.52642 | 352 ft | 30 kts | 70° |
| 2026-05-04 19:04 | 50.04266 | 8.52950 | 350 ft | 30 kts | 69° |
| 2026-05-04 19:04 | 50.04337 | 8.53247 | 358 ft | 29 kts | 70° |
| 2026-05-04 19:04 | 50.04395 | 8.53540 | 359 ft | 29 kts | 84° |
| 2026-05-04 19:04 | 50.04417 | 8.53857 | 359 ft | 30 kts | 84° |
| 2026-05-04 19:05 | 50.04439 | 8.54187 | 360 ft | 31 kts | 84° |
| 2026-05-04 19:05 | 50.04445 | 8.54529 | 362 ft | 32 kts | 104° |
| 2026-05-04 19:05 | 50.04302 | 8.54779 | 360 ft | 27 kts | 156° |
| 2026-05-04 19:05 | 50.04167 | 8.54855 | 362 ft | 20 kts | 160° |
| 2026-05-04 19:06 | 50.04069 | 8.54910 | 364 ft | 0 kts | 160° |
| 2026-05-04 19:08 | 50.04047 | 8.54923 | 359 ft | 12 kts | 156° |
| 2026-05-04 19:09 | 50.04023 | 8.55034 | 359 ft | 12 kts | 71° |
| 2026-05-04 19:09 | 50.04051 | 8.55152 | 360 ft | 13 kts | 69° |
| 2026-05-04 19:09 | 50.04085 | 8.55297 | 365 ft | 19 kts | 70° |
| 2026-05-04 19:09 | 50.04120 | 8.55445 | 361 ft | 3 kts | 70° |
| 2026-05-04 19:10 | 50.04122 | 8.55452 | 361 ft | 6 kts | 70° |
| 2026-05-04 19:10 | 50.04165 | 8.55632 | 361 ft | 24 kts | 69° |
| 2026-05-04 19:10 | 50.04226 | 8.55884 | 365 ft | 22 kts | 69° |
| 2026-05-04 19:11 | 50.04278 | 8.55961 | 361 ft | 11 kts | 359° |
| 2026-05-04 19:11 | 50.04335 | 8.55932 | 359 ft | 2 kts | 339° |
| 2026-05-04 19:11 | 50.04351 | 8.55924 | 363 ft | 4 kts | 344° |
| 2026-05-04 19:11 | 50.04399 | 8.55935 | 363 ft | 7 kts | 32° |
| 2026-05-04 19:12 | 50.04422 | 8.55992 | 359 ft | 6 kts | 70° |
| 2026-05-04 19:12 | 50.04452 | 8.56120 | 362 ft | 3 kts | 71° |
| 2026-05-04 19:12 | 50.04439 | 8.56141 | 365 ft | 4 kts | 167° |
| 2026-05-04 19:13 | 50.04415 | 8.56150 | 362 ft | 3 kts | 154° |
| 2026-05-04 19:13 | 50.04398 | 8.56162 | 363 ft | 2 kts | 154° |
| 2026-05-04 19:13 | 50.04390 | 8.56168 | 361 ft | 0 kts | 154° |
| 2026-05-04 19:13 | 50.04389 | 8.56169 | 361 ft | 0 kts | 154° |